createdAt,value
2022-09-16T00:04:01.880Z,99883.22
2022-09-16T00:09:03.492Z,99875.00
2022-09-16T00:14:05.089Z,99876.09
2022-09-16T00:19:07.081Z,99868.41
2022-09-16T00:24:13.353Z,99863.00
2022-09-16T00:29:14.981Z,99862.19
2022-09-16T00:34:16.405Z,99865.13
2022-09-16T00:39:17.925Z,99877.53
2022-09-16T00:44:50.396Z,99874.13
2022-09-16T00:49:55.709Z,99879.53
2022-09-16T00:54:58.601Z,99870.00
2022-09-16T01:00:01.224Z,99879.06
2022-09-16T01:05:07.968Z,99867.31
2022-09-16T01:10:09.741Z,99869.03
2022-09-16T01:15:12.882Z,99877.66
2022-09-16T01:20:45.597Z,99874.66
2022-09-16T01:26:02.689Z,99876.78
2022-09-16T01:31:33.944Z,99854.97
2022-09-16T01:36:50.483Z,99871.06
2022-09-16T01:41:57.895Z,99864.38
2022-09-16T01:47:05.745Z,99858.31
2022-09-16T01:52:19.075Z,99861.78
2022-09-16T01:57:35.113Z,99860.22
2022-09-16T02:02:40.584Z,99859.16
2022-09-16T02:07:49.930Z,99852.66
2022-09-16T02:12:54.380Z,99850.38
2022-09-16T02:18:04.967Z,99853.25
2022-09-16T02:23:16.031Z,99863.88
2022-09-16T02:28:26.162Z,99870.25
2022-09-16T02:33:35.700Z,99861.44
2022-09-16T02:38:41.827Z,99864.75
2022-09-16T02:43:45.697Z,99860.34
2022-09-16T02:48:55.556Z,99861.81
2022-09-16T02:54:10.387Z,99859.06
2022-09-16T02:59:13.213Z,99849.63
2022-09-16T03:04:17.346Z,99859.72
2022-09-16T03:09:19.133Z,99845.22
2022-09-16T03:14:32.569Z,99855.41
2022-09-16T03:20:10.492Z,99850.28
2022-09-16T03:25:34.048Z,99844.84
2022-09-16T03:30:41.680Z,99842.19
2022-09-16T03:35:47.467Z,99839.53
2022-09-16T03:40:49.411Z,99842.03
2022-09-16T03:45:51.466Z,99840.44
2022-09-16T03:50:52.997Z,99833.97
2022-09-16T03:55:54.426Z,99825.84
2022-09-16T04:00:56.275Z,99834.91
2022-09-16T04:05:57.862Z,99826.75
2022-09-16T04:11:02.129Z,99834.47
2022-09-16T04:16:04.941Z,99833.25
2022-09-16T04:21:06.374Z,99826.97
2022-09-16T04:26:08.398Z,99829.41
2022-09-16T04:31:14.843Z,99833.19
2022-09-16T04:36:19.433Z,99844.00
2022-09-16T04:41:23.142Z,99832.09
2022-09-16T04:46:26.719Z,99829.88
2022-09-16T04:51:29.179Z,99825.94
2022-09-16T04:56:32.589Z,99836.03
2022-09-16T05:01:37.149Z,99846.66
2022-09-16T05:06:41.610Z,99834.34
2022-09-16T05:11:43.092Z,99845.22
2022-09-16T05:16:45.360Z,99842.56
2022-09-16T05:21:46.789Z,99833.97
2022-09-16T05:26:48.168Z,99844.03
2022-09-16T05:31:49.581Z,99839.75
2022-09-16T05:36:54.009Z,99842.31
2022-09-16T05:41:58.221Z,99850.00
2022-09-16T05:46:59.709Z,99842.22
2022-09-16T05:52:01.258Z,99858.31
2022-09-16T05:57:07.232Z,99846.31
2022-09-16T06:02:09.168Z,99855.97
2022-09-16T06:07:10.684Z,99877.44
2022-09-16T06:12:12.368Z,99883.56
2022-09-16T06:17:13.881Z,99879.88
2022-09-16T06:22:15.396Z,99879.38
2022-09-16T06:27:17.549Z,99893.47
2022-09-16T06:32:19.009Z,99890.09
2022-09-16T06:37:21.150Z,99887.66
2022-09-16T06:42:22.563Z,99892.22
2022-09-16T06:47:24.145Z,99886.28
2022-09-16T06:52:26.696Z,99882.53
2022-09-16T06:57:28.170Z,99879.97
2022-09-16T07:02:31.287Z,99878.66
2022-09-16T07:07:33.875Z,99880.41
2022-09-16T07:12:35.338Z,99886.50
2022-09-16T07:17:36.791Z,99894.53
2022-09-16T07:22:38.289Z,99895.75
2022-09-16T07:27:39.861Z,99891.91
2022-09-16T07:32:41.363Z,99885.75
2022-09-16T07:37:42.954Z,99890.19
2022-09-16T07:42:44.653Z,99895.91
2022-09-16T07:47:50.770Z,99899.47
2022-09-16T07:52:56.438Z,99899.41
2022-09-16T07:57:57.843Z,99904.78
2022-09-16T08:02:59.451Z,99909.97
2022-09-16T08:08:01.194Z,99923.31
2022-09-16T08:13:04.014Z,99922.34
2022-09-16T08:18:05.562Z,99919.84
2022-09-16T08:23:07.297Z,99920.44
2022-09-16T08:28:16.046Z,99923.22
2022-09-16T08:33:21.106Z,99926.91
2022-09-16T08:38:22.523Z,99925.41
2022-09-16T08:43:36.713Z,99928.56
2022-09-16T08:48:57.715Z,99928.38
2022-09-16T08:54:03.871Z,99935.16
2022-09-16T08:59:11.891Z,99936.38
2022-09-16T09:04:14.267Z,99944.53
2022-09-16T09:09:39.680Z,99951.22
2022-09-16T09:15:01.886Z,99951.88
2022-09-16T09:20:29.973Z,99947.63
2022-09-16T09:26:02.553Z,99947.94
2022-09-16T09:31:39.684Z,99937.66
2022-09-16T09:37:07.453Z,99957.53
2022-09-16T09:42:21.232Z,99961.41
2022-09-16T09:47:30.054Z,99957.16
2022-09-16T09:52:44.498Z,99955.34
2022-09-16T09:58:01.217Z,99951.13
2022-09-16T10:03:20.634Z,99947.00
2022-09-16T10:08:30.038Z,99947.63
2022-09-16T10:13:31.843Z,99960.78
2022-09-16T10:18:33.856Z,99967.16
2022-09-16T10:23:36.326Z,99960.06
2022-09-16T10:28:38.460Z,99966.41
2022-09-16T10:33:44.770Z,99944.34
2022-09-16T10:39:00.965Z,99948.72
2022-09-16T10:44:26.216Z,99951.31
2022-09-16T10:49:50.359Z,99952.25
2022-09-16T10:54:53.038Z,99947.44
2022-09-16T10:59:57.521Z,99938.47
2022-09-16T11:05:31.585Z,99951.63
2022-09-16T11:10:49.780Z,99948.13
2022-09-16T11:15:56.889Z,99950.88
2022-09-16T11:21:30.350Z,99951.03
2022-09-16T11:26:58.642Z,99937.72
2022-09-16T11:32:05.429Z,99934.38
2022-09-16T11:37:43.071Z,99930.69
2022-09-16T11:43:04.216Z,99926.09
2022-09-16T11:48:17.886Z,99920.47
2022-09-16T11:53:24.617Z,99920.25
2022-09-16T11:58:56.974Z,99913.19
2022-09-16T12:04:20.476Z,99910.88
2022-09-16T12:09:36.691Z,99897.25
2022-09-16T12:14:43.819Z,99899.09
2022-09-16T12:19:58.018Z,99892.19
2022-09-16T12:25:12.506Z,99892.16
2022-09-16T12:30:26.414Z,99875.72
2022-09-16T12:35:38.147Z,99880.34
2022-09-16T12:41:12.386Z,99881.94
2022-09-16T12:46:37.007Z,99872.78
2022-09-16T12:51:50.405Z,99877.38
2022-09-16T12:57:13.749Z,99862.81
2022-09-16T13:02:22.658Z,99853.41
2022-09-16T13:07:32.267Z,99851.50
2022-09-16T13:12:41.493Z,99842.97
2022-09-16T13:17:48.571Z,99840.13
2022-09-16T13:22:55.907Z,99841.34
2022-09-16T13:28:01.912Z,99832.81
2022-09-16T13:33:09.489Z,99815.69
2022-09-16T13:38:17.072Z,99827.72
2022-09-16T13:43:48.129Z,99820.22
2022-09-16T13:48:58.735Z,99823.59
2022-09-16T13:54:03.569Z,99817.31
2022-09-16T13:59:16.255Z,99819.88
2022-09-16T14:04:28.435Z,99825.59
2022-09-16T14:09:33.003Z,99824.69
2022-09-16T14:14:47.098Z,99822.50
2022-09-16T14:19:52.814Z,99822.88
2022-09-16T14:25:05.984Z,99811.16
2022-09-16T14:30:17.335Z,99818.84
2022-09-16T14:35:23.268Z,99809.03
2022-09-16T14:40:26.751Z,99807.78
2022-09-16T14:45:30.469Z,99811.25
2022-09-16T14:50:37.084Z,99801.66
2022-09-16T14:55:48.738Z,99805.72
2022-09-16T15:00:55.251Z,99805.72
2022-09-16T15:06:04.967Z,99811.13
2022-09-16T15:11:29.778Z,99805.69
2022-09-16T15:16:42.574Z,99803.59
2022-09-16T15:21:44.664Z,99807.00
2022-09-16T15:26:47.326Z,99805.06
2022-09-16T15:31:50.292Z,99800.94
2022-09-16T15:36:53.769Z,99809.50
2022-09-16T15:42:20.746Z,99804.34
2022-09-16T15:47:29.402Z,99812.91
2022-09-16T15:52:49.902Z,99820.06
2022-09-16T15:57:56.772Z,99823.81
2022-09-16T16:03:01.963Z,99829.28
2022-09-16T16:08:09.553Z,99831.66
2022-09-16T16:13:11.418Z,99840.50
2022-09-16T16:18:12.911Z,99843.41
2022-09-16T16:23:14.975Z,99853.25
2022-09-16T16:28:16.684Z,99861.31
2022-09-16T16:33:18.170Z,99865.19
2022-09-16T16:38:19.624Z,99862.53
2022-09-16T16:43:21.099Z,99868.13
2022-09-16T16:48:23.775Z,99875.84
2022-09-16T16:53:25.345Z,99882.00
2022-09-16T16:58:26.775Z,99884.59
2022-09-16T17:03:30.195Z,99885.16
2022-09-16T17:08:31.639Z,99894.22
2022-09-16T17:13:33.501Z,99896.66
2022-09-16T17:18:36.648Z,99901.78
2022-09-16T17:23:38.478Z,99904.84
2022-09-16T17:28:41.757Z,99912.84
2022-09-16T17:33:44.199Z,99927.09
2022-09-16T17:38:45.695Z,99929.16
2022-09-16T17:43:49.374Z,99933.69
2022-09-16T17:48:51.152Z,99933.91
2022-09-16T17:53:52.602Z,99936.38
2022-09-16T17:58:54.359Z,99945.63
2022-09-16T18:03:56.645Z,99947.06
2022-09-16T18:09:01.967Z,99955.47
2022-09-16T18:14:06.743Z,99966.59
2022-09-16T18:19:08.623Z,99975.75
2022-09-16T18:24:13.010Z,99986.69
2022-09-16T18:29:14.516Z,99987.00
2022-09-16T18:34:17.061Z,99993.91
2022-09-16T18:39:18.523Z,99995.97
2022-09-16T18:44:23.782Z,99999.94
2022-09-16T18:49:27.771Z,100007.13
2022-09-16T18:54:29.737Z,100004.16
2022-09-16T18:59:32.666Z,100008.13
2022-09-16T19:04:38.837Z,100016.09
2022-09-16T19:09:40.799Z,100017.00
2022-09-16T19:14:42.411Z,100030.16
2022-09-16T19:19:44.584Z,100023.53
2022-09-16T19:24:46.095Z,100027.13
2022-09-16T19:29:47.757Z,100035.38
2022-09-16T19:34:49.956Z,100043.59
2022-09-16T19:39:51.422Z,100050.84
2022-09-16T19:44:53.329Z,100045.09
2022-09-16T19:49:54.712Z,100055.41
2022-09-16T19:54:56.144Z,100046.47
2022-09-16T19:59:57.582Z,100047.44
2022-09-16T20:04:58.969Z,100057.00
2022-09-16T20:10:00.386Z,100069.88
2022-09-16T20:15:02.085Z,100072.81
2022-09-16T20:20:05.823Z,100069.72
2022-09-16T20:25:22.583Z,100075.44
2022-09-16T20:30:24.720Z,100079.06
2022-09-16T20:35:26.207Z,100091.78
2022-09-16T20:40:27.689Z,100086.69
2022-09-16T20:45:29.181Z,100095.25
2022-09-16T20:50:30.754Z,100105.31
2022-09-16T20:55:32.560Z,100105.25
2022-09-16T21:00:33.983Z,100095.00
2022-09-16T21:05:35.394Z,100096.31
2022-09-16T21:10:39.802Z,100100.06
2022-09-16T21:15:41.208Z,100111.34
2022-09-16T21:20:43.199Z,100117.38
2022-09-16T21:25:44.608Z,100123.38
2022-09-16T21:30:46.046Z,100129.34
2022-09-16T21:35:51.733Z,100127.75
2022-09-16T21:40:57.984Z,100127.00
2022-09-16T21:46:00.471Z,100134.91
2022-09-16T21:51:05.545Z,100136.03
2022-09-16T21:56:08.851Z,100123.03
2022-09-16T22:01:20.430Z,100141.50
2022-09-16T22:06:22.703Z,100129.44
2022-09-16T22:11:26.540Z,100128.06
2022-09-16T22:16:30.957Z,100127.03
2022-09-16T22:21:34.609Z,100127.03
2022-09-16T22:26:36.819Z,100116.53
2022-09-16T22:31:41.284Z,100113.59
2022-09-16T22:36:42.894Z,100122.75
2022-09-16T22:41:44.363Z,100126.34
2022-09-16T22:46:48.083Z,100125.06
2022-09-16T22:51:49.494Z,100128.03
2022-09-16T22:56:50.939Z,100120.09
2022-09-16T23:01:52.604Z,100123.56
2022-09-16T23:06:54.377Z,100123.38
2022-09-16T23:11:55.918Z,100120.47
2022-09-16T23:16:57.319Z,100123.69
2022-09-16T23:21:58.695Z,100119.75
2022-09-16T23:27:00.103Z,100125.75
2022-09-16T23:32:03.253Z,100122.72
2022-09-16T23:37:04.750Z,100119.81
2022-09-16T23:42:06.236Z,100131.59
2022-09-16T23:47:07.613Z,100129.81
2022-09-16T23:52:09.293Z,100134.91
2022-09-16T23:57:10.698Z,100126.53
